Time,TemperatureF,DewpointF,PressureIn,WindDirection,WindDirectionDegrees,WindSpeedMPH,WindSpeedGustMPH,Humidity,HourlyPrecipIn,Conditions,Clouds,dailyrainin,SoftwareType,DateUTC
2013-07-23 00:07:00,72.6,72.0,30.00,ENE,77,1.0,4.0,99,0.00,,,0.00,weatherlink.com 1.10,2013-07-23 05:07:00,
2013-07-23 00:22:00,72.4,72.0,29.99,East,86,1.0,5.0,98,0.00,,,0.00,weatherlink.com 1.10,2013-07-23 05:22:00,
2013-07-23 00:37:00,72.3,72.0,29.99,WNW,285,0.0,4.0,99,0.00,,,0.00,weatherlink.com 1.10,2013-07-23 05:37:00,
2013-07-23 00:52:00,72.1,72.0,29.99,ESE,123,1.0,4.0,99,0.00,,,0.00,weatherlink.com 1.10,2013-07-23 05:52:00,
2013-07-23 01:07:00,72.0,72.0,29.99,ESE,111,0.0,3.0,99,0.00,,,0.00,weatherlink.com 1.10,2013-07-23 06:07:00,
2013-07-23 01:22:00,71.8,72.0,29.99,ESE,115,0.0,1.0,99,0.00,,,0.00,weatherlink.com 1.10,2013-07-23 06:22:00,
2013-07-23 01:37:00,71.6,71.0,29.98,SE,131,0.0,1.0,99,0.00,,,0.00,weatherlink.com 1.10,2013-07-23 06:37:00,
2013-07-23 01:52:00,71.4,71.0,29.98,SW,236,0.0,1.0,99,0.01,,,0.01,weatherlink.com 1.10,2013-07-23 06:52:00,
2013-07-23 02:07:00,71.3,71.0,29.98,SSW,211,0.0,1.0,99,0.01,,,0.01,weatherlink.com 1.10,2013-07-23 07:07:00,
2013-07-23 02:22:00,71.2,71.0,29.98,West,262,0.0,1.0,99,0.01,,,0.01,weatherlink.com 1.10,2013-07-23 07:22:00,
2013-07-23 02:37:00,71.4,71.0,29.99,West,264,0.0,0.0,99,0.01,,,0.01,weatherlink.com 1.10,2013-07-23 07:37:00,
2013-07-23 02:52:00,71.4,71.0,29.99,ESE,120,0.0,1.0,99,0.00,,,0.01,weatherlink.com 1.10,2013-07-23 07:52:00,
2013-07-23 03:07:00,71.5,71.0,30.00,ESE,120,0.0,0.0,99,0.00,,,0.01,weatherlink.com 1.10,2013-07-23 08:07:00,
2013-07-23 03:22:00,71.8,72.0,30.00,ESE,120,0.0,0.0,99,0.00,,,0.01,weatherlink.com 1.10,2013-07-23 08:22:00,
2013-07-23 03:37:00,71.9,72.0,30.00,ESE,120,0.0,0.0,99,0.00,,,0.01,weatherlink.com 1.10,2013-07-23 08:37:00,
2013-07-23 03:52:00,71.8,72.0,30.00,SE,134,0.0,1.0,99,0.00,,,0.01,weatherlink.com 1.10,2013-07-23 08:52:00,
2013-07-23 04:07:00,71.9,72.0,30.00,WSW,243,0.0,2.0,99,0.00,,,0.01,weatherlink.com 1.10,2013-07-23 09:07:00,
2013-07-23 04:22:00,71.9,72.0,30.00,ENE,70,1.0,3.0,99,0.00,,,0.01,weatherlink.com 1.10,2013-07-23 09:22:00,
2013-07-23 04:37:00,72.1,72.0,30.01,SSW,208,0.0,1.0,99,0.00,,,0.01,weatherlink.com 1.10,2013-07-23 09:37:00,
2013-07-23 04:52:00,72.2,72.0,30.01,ENE,68,0.0,1.0,99,0.00,,,0.01,weatherlink.com 1.10,2013-07-23 09:52:00,
2013-07-23 05:07:00,72.3,72.0,30.01,West,277,0.0,1.0,99,0.00,,,0.01,weatherlink.com 1.10,2013-07-23 10:07:00,
2013-07-23 05:22:00,72.4,72.0,30.01,SW,221,0.0,1.0,99,0.00,,,0.01,weatherlink.com 1.10,2013-07-23 10:22:00,
2013-07-23 05:37:00,72.5,72.0,30.01,SW,221,0.0,1.0,99,0.00,,,0.01,weatherlink.com 1.10,2013-07-23 10:37:00,
2013-07-23 05:52:00,72.6,72.0,30.02,SSE,158,0.0,1.0,99,0.00,,,0.01,weatherlink.com 1.10,2013-07-23 10:52:00,
2013-07-23 06:07:00,72.6,72.0,30.02,ESE,113,0.0,3.0,99,0.00,,,0.01,weatherlink.com 1.10,2013-07-23 11:07:00,
2013-07-23 06:22:00,72.7,72.0,30.02,West,264,0.0,1.0,99,0.00,,,0.01,weatherlink.com 1.10,2013-07-23 11:22:00,
2013-07-23 06:37:00,72.9,73.0,30.02,SW,221,0.0,2.0,99,0.00,,,0.01,weatherlink.com 1.10,2013-07-23 11:37:00,
2013-07-23 06:52:00,73.1,73.0,30.02,SSW,211,0.0,2.0,99,0.00,,,0.01,weatherlink.com 1.10,2013-07-23 11:52:00,
2013-07-23 07:07:00,73.5,73.0,30.01,NW,317,0.0,4.0,99,0.00,,,0.01,weatherlink.com 1.10,2013-07-23 12:07:00,
2013-07-23 07:22:00,73.9,74.0,30.01,East,84,0.0,3.0,99,0.00,,,0.01,weatherlink.com 1.10,2013-07-23 12:22:00,
2013-07-23 07:37:00,74.4,74.0,30.01,West,274,2.0,3.0,99,0.00,,,0.01,weatherlink.com 1.10,2013-07-23 12:37:00,
2013-07-23 07:52:00,74.9,75.0,30.01,NW,313,2.0,4.0,99,0.00,,,0.01,weatherlink.com 1.10,2013-07-23 12:52:00,
2013-07-23 08:07:00,75.4,75.0,30.02,WSW,248,3.0,4.0,99,0.00,,,0.01,weatherlink.com 1.10,2013-07-23 13:07:00,
2013-07-23 08:22:00,76.3,76.0,30.02,WNW,291,1.0,4.0,98,0.00,,,0.01,weatherlink.com 1.10,2013-07-23 13:22:00,
2013-07-23 08:37:00,77.0,76.0,30.02,ESE,114,0.0,4.0,97,0.00,,,0.01,weatherlink.com 1.10,2013-07-23 13:37:00,
2013-07-23 08:52:00,77.9,76.0,30.02,WNW,303,2.0,4.0,94,0.00,,,0.01,weatherlink.com 1.10,2013-07-23 13:52:00,
2013-07-23 09:07:00,78.4,77.0,30.02,South,186,2.0,7.0,95,0.00,,,0.01,weatherlink.com 1.10,2013-07-23 14:07:00,
2013-07-23 09:22:00,79.4,77.0,30.03,WNW,284,2.0,5.0,92,0.00,,,0.01,weatherlink.com 1.10,2013-07-23 14:22:00,
2013-07-23 09:37:00,80.5,77.0,30.02,SW,236,2.0,6.0,90,0.00,,,0.01,weatherlink.com 1.10,2013-07-23 14:37:00,
2013-07-23 09:53:00,81.8,78.0,30.02,West,278,1.0,5.0,89,0.00,,,0.01,weatherlink.com 1.10,2013-07-23 14:53:00,
2013-07-23 10:08:00,82.2,78.0,30.02,WSW,256,0.0,5.0,88,0.00,,,0.01,weatherlink.com 1.10,2013-07-23 15:08:00,
2013-07-23 10:23:00,83.3,78.0,30.02,East,86,1.0,6.0,85,0.00,,,0.01,weatherlink.com 1.10,2013-07-23 15:23:00,
2013-07-23 10:38:00,85.0,79.0,30.02,SE,139,0.0,5.0,83,0.00,,,0.01,weatherlink.com 1.10,2013-07-23 15:38:00,
2013-07-23 10:53:00,85.6,78.0,30.01,SSW,211,2.0,5.0,78,0.00,,,0.01,weatherlink.com 1.10,2013-07-23 15:53:00,
2013-07-23 11:08:00,86.2,79.0,30.02,SSW,211,2.0,6.0,78,0.00,,,0.01,weatherlink.com 1.10,2013-07-23 16:08:00,
2013-07-23 11:23:00,85.6,78.0,30.01,SW,228,1.0,6.0,79,0.00,,,0.01,weatherlink.com 1.10,2013-07-23 16:23:00,
2013-07-23 11:38:00,86.5,79.0,30.00,NNE,12,1.0,3.0,79,0.00,,,0.01,weatherlink.com 1.10,2013-07-23 16:38:00,
2013-07-23 11:53:00,87.3,79.0,30.00,NNW,338,2.0,4.0,75,0.00,,,0.01,weatherlink.com 1.10,2013-07-23 16:53:00,
2013-07-23 12:08:00,87.4,79.0,29.98,NW,316,5.0,10.0,76,0.00,,,0.01,weatherlink.com 1.10,2013-07-23 17:08:00,
2013-07-23 12:23:00,88.2,78.0,29.98,NNW,335,0.0,5.0,72,0.00,,,0.01,weatherlink.com 1.10,2013-07-23 17:23:00,
2013-07-23 12:38:00,87.9,79.0,29.97,ENE,62,1.0,6.0,74,0.00,,,0.01,weatherlink.com 1.10,2013-07-23 17:38:00,
2013-07-23 12:53:00,88.8,80.0,29.96,WSW,240,1.0,7.0,74,0.00,,,0.01,weatherlink.com 1.10,2013-07-23 17:53:00,
2013-07-23 13:08:00,90.0,81.0,29.96,NE,34,2.0,5.0,75,0.00,,,0.01,weatherlink.com 1.10,2013-07-23 18:08:00,
2013-07-23 13:38:00,88.7,79.0,29.96,North,354,0.0,6.0,73,0.00,,,0.01,weatherlink.com 1.10,2013-07-23 18:38:00,
2013-07-23 13:53:00,89.2,80.0,29.95,SW,231,1.0,3.0,73,0.00,,,0.01,weatherlink.com 1.10,2013-07-23 18:53:00,
2013-07-23 14:08:00,89.2,79.0,29.94,NE,45,1.0,6.0,71,0.00,,,0.01,weatherlink.com 1.10,2013-07-23 19:08:00,
2013-07-23 14:23:00,89.3,79.0,29.93,ESE,115,0.0,6.0,71,0.00,,,0.01,weatherlink.com 1.10,2013-07-23 19:23:00,
2013-07-23 14:53:00,89.7,79.0,29.92,North,359,0.0,5.0,70,0.00,,,0.01,weatherlink.com 1.10,2013-07-23 19:53:00,
2013-07-23 15:08:00,87.1,79.0,29.92,WNW,290,1.0,6.0,77,0.00,,,0.01,weatherlink.com 1.10,2013-07-23 20:08:00,
2013-07-23 15:23:00,86.0,80.0,29.92,East,94,0.0,4.0,81,0.00,,,0.01,weatherlink.com 1.10,2013-07-23 20:23:00,
2013-07-23 15:38:00,85.9,81.0,29.92,West,266,1.0,3.0,84,0.00,,,0.01,weatherlink.com 1.10,2013-07-23 20:38:00,
2013-07-23 15:53:00,86.8,80.0,29.92,WSW,242,2.0,4.0,81,0.00,,,0.01,weatherlink.com 1.10,2013-07-23 20:53:00,
2013-07-23 16:08:00,87.0,80.0,29.92,WSW,255,1.0,5.0,80,0.00,,,0.01,weatherlink.com 1.10,2013-07-23 21:08:00,
2013-07-23 16:23:00,86.0,78.0,29.93,WNW,285,1.0,7.0,78,0.00,,,0.01,weatherlink.com 1.10,2013-07-23 21:23:00,
2013-07-23 16:38:00,82.8,72.0,29.97,WSW,242,3.0,22.0,69,0.00,,,0.01,weatherlink.com 1.10,2013-07-23 21:38:00,
2013-07-23 16:53:00,71.9,70.0,29.99,WNW,303,6.0,10.0,92,0.57,,,0.58,weatherlink.com 1.10,2013-07-23 21:53:00,
2013-07-23 17:08:00,69.9,69.0,29.98,West,278,2.0,9.0,96,0.88,,,0.89,weatherlink.com 1.10,2013-07-23 22:08:00,
2013-07-23 17:39:00,69.5,69.0,29.96,East,100,1.0,2.0,97,0.91,,,0.92,weatherlink.com 1.10,2013-07-23 22:39:00,
2013-07-23 17:54:00,69.5,69.0,29.95,WNW,297,0.0,3.0,97,0.31,,,0.92,weatherlink.com 1.10,2013-07-23 22:54:00,
2013-07-23 18:09:00,69.7,69.0,29.95,West,263,0.0,1.0,98,0.05,,,0.94,weatherlink.com 1.10,2013-07-23 23:09:00,
2013-07-23 18:24:00,69.7,69.0,29.94,ESE,118,0.0,1.0,98,0.05,,,0.96,weatherlink.com 1.10,2013-07-23 23:24:00,
2013-07-23 18:39:00,69.6,69.0,29.92,SE,139,0.0,2.0,98,0.06,,,0.98,weatherlink.com 1.10,2013-07-23 23:39:00,
2013-07-23 19:08:00,69.6,69.0,29.90,East,89,0.0,2.0,98,0.06,,,1.00,weatherlink.com 1.10,2013-07-24 00:08:00,
2013-07-23 19:23:00,69.5,69.0,29.93,East,91,0.0,0.0,98,0.04,,,1.00,weatherlink.com 1.10,2013-07-24 00:23:00,
2013-07-23 19:38:00,69.6,69.0,29.93,East,89,0.0,1.0,98,0.02,,,1.00,weatherlink.com 1.10,2013-07-24 00:38:00,
2013-07-23 20:08:00,69.6,69.0,29.93,East,96,1.0,2.0,98,0.00,,,1.00,weatherlink.com 1.10,2013-07-24 01:08:00,
2013-07-23 20:23:00,69.5,69.0,29.94,East,98,1.0,2.0,98,0.00,,,1.00,weatherlink.com 1.10,2013-07-24 01:23:00,
2013-07-23 20:39:00,69.6,69.0,29.94,East,84,1.0,2.0,98,0.00,,,1.00,weatherlink.com 1.10,2013-07-24 01:39:00,
2013-07-23 20:53:00,69.6,69.0,29.95,East,96,0.0,2.0,98,0.00,,,1.00,weatherlink.com 1.10,2013-07-24 01:53:00,
2013-07-23 21:09:00,69.6,69.0,29.95,ENE,70,0.0,1.0,99,0.00,,,1.00,weatherlink.com 1.10,2013-07-24 02:09:00,
2013-07-23 21:24:00,69.5,69.0,29.95,East,85,0.0,2.0,99,0.00,,,1.00,weatherlink.com 1.10,2013-07-24 02:24:00,
2013-07-23 21:39:00,69.4,69.0,29.96,ESE,108,0.0,2.0,99,0.00,,,1.00,weatherlink.com 1.10,2013-07-24 02:39:00,
2013-07-23 21:54:00,69.4,69.0,29.95,East,87,0.0,1.0,99,0.00,,,1.00,weatherlink.com 1.10,2013-07-24 02:54:00,
2013-07-23 22:09:00,69.2,69.0,29.94,East,88,0.0,1.0,99,0.00,,,1.00,weatherlink.com 1.10,2013-07-24 03:09:00,
2013-07-23 23:09:00,69.0,69.0,29.93,East,86,1.0,2.0,99,0.00,,,1.00,weatherlink.com 1.10,2013-07-24 04:09:00,
2013-07-23 23:24:00,68.8,69.0,29.93,East,83,0.0,1.0,99,0.00,,,1.00,weatherlink.com 1.10,2013-07-24 04:24:00,
2013-07-23 23:39:00,68.9,69.0,29.93,SE,134,0.0,1.0,99,0.00,,,1.00,weatherlink.com 1.10,2013-07-24 04:39:00,
2013-07-23 23:54:00,68.8,69.0,29.93,East,100,0.0,1.0,99,0.00,,,1.00,weatherlink.com 1.10,2013-07-24 04:54:00,